createdAt,value
2022-08-30T00:02:25.351Z,3.70
2022-08-30T00:04:54.277Z,3.43
2022-08-30T00:07:21.760Z,3.20
2022-08-30T00:09:48.566Z,3.53
2022-08-30T00:12:15.408Z,3.47
2022-08-30T00:14:42.224Z,4.00
2022-08-30T00:17:09.097Z,3.30
2022-08-30T00:19:35.947Z,3.70
2022-08-30T00:22:02.798Z,3.93
2022-08-30T00:24:30.661Z,3.67
2022-08-30T00:26:57.509Z,4.10
2022-08-30T00:29:24.741Z,4.03
2022-08-30T00:31:51.700Z,3.73
2022-08-30T00:34:18.830Z,4.00
2022-08-30T00:36:45.662Z,3.67
2022-08-30T00:39:12.765Z,3.33
2022-08-30T00:41:39.961Z,3.60
2022-08-30T00:44:07.859Z,3.10
2022-08-30T00:46:34.720Z,3.70
2022-08-30T00:49:05.389Z,3.30
2022-08-30T00:51:33.404Z,3.47
2022-08-30T00:54:01.442Z,3.10
2022-08-30T00:56:29.706Z,3.00
2022-08-30T00:58:59.629Z,3.10
2022-08-30T01:01:28.280Z,2.90
2022-08-30T01:04:00.192Z,3.30
2022-08-30T01:06:32.470Z,2.63
2022-08-30T01:09:00.829Z,2.47
2022-08-30T01:11:28.232Z,3.10
2022-08-30T01:13:56.277Z,2.73
2022-08-30T01:16:25.307Z,2.40
2022-08-30T01:18:57.816Z,2.70
2022-08-30T01:21:57.337Z,2.57
2022-08-30T01:24:24.330Z,2.83
2022-08-30T01:26:51.155Z,2.57
2022-08-30T01:29:21.059Z,2.80
2022-08-30T01:31:47.854Z,2.90
2022-08-30T01:34:14.749Z,3.10
2022-08-30T01:36:45.673Z,2.30
2022-08-30T01:39:15.636Z,2.50
2022-08-30T01:41:43.553Z,3.03
2022-08-30T01:44:12.303Z,2.83
2022-08-30T01:46:43.268Z,2.67
2022-08-30T01:49:13.688Z,2.60
2022-08-30T01:51:41.522Z,2.60
2022-08-30T01:54:08.889Z,2.83
2022-08-30T01:56:35.800Z,3.03
2022-08-30T01:59:03.329Z,2.90
2022-08-30T02:01:32.841Z,2.77
2022-08-30T02:04:00.490Z,2.83
2022-08-30T02:06:27.413Z,2.73
2022-08-30T02:08:54.836Z,3.03
2022-08-30T02:11:21.860Z,2.67
2022-08-30T02:13:48.707Z,2.80
2022-08-30T02:16:19.132Z,2.90
2022-08-30T02:18:46.314Z,2.87
2022-08-30T02:21:13.714Z,2.70
2022-08-30T02:23:40.994Z,2.80
2022-08-30T02:26:08.279Z,2.73
2022-08-30T02:28:35.185Z,3.17
2022-08-30T02:31:09.992Z,2.70
2022-08-30T02:33:38.029Z,3.03
2022-08-30T02:36:07.951Z,2.80
2022-08-30T02:38:35.359Z,2.63
2022-08-30T02:41:02.263Z,2.83
2022-08-30T02:43:29.156Z,2.90
2022-08-30T02:45:56.146Z,2.97
2022-08-30T02:48:23.047Z,2.77
2022-08-30T02:50:52.207Z,2.77
2022-08-30T02:53:21.127Z,2.80
2022-08-30T02:55:49.059Z,2.57
2022-08-30T02:58:16.009Z,3.33
2022-08-30T03:00:43.120Z,3.10
2022-08-30T03:03:10.161Z,3.37
2022-08-30T03:05:39.549Z,2.77
2022-08-30T03:08:08.160Z,2.80
2022-08-30T03:10:35.383Z,2.40
2022-08-30T03:13:03.468Z,2.93
2022-08-30T03:15:30.305Z,2.73
2022-08-30T03:17:57.156Z,3.00
2022-08-30T03:20:24.500Z,2.97
2022-08-30T03:22:51.867Z,3.07
2022-08-30T03:25:20.773Z,3.60
2022-08-30T03:27:47.965Z,2.93
2022-08-30T03:30:15.080Z,2.87
2022-08-30T03:32:42.023Z,3.23
2022-08-30T03:35:10.619Z,3.17
2022-08-30T03:37:37.680Z,2.97
2022-08-30T03:40:07.589Z,3.00
2022-08-30T03:42:35.019Z,2.93
2022-08-30T03:45:02.452Z,2.80
2022-08-30T03:47:29.746Z,3.47
2022-08-30T03:49:57.341Z,2.93
2022-08-30T03:52:24.111Z,3.00
2022-08-30T03:54:50.920Z,2.97
2022-08-30T03:57:19.726Z,3.40
2022-08-30T03:59:47.037Z,3.20
2022-08-30T04:02:14.015Z,3.13
2022-08-30T04:04:40.924Z,3.00
2022-08-30T04:07:07.828Z,3.07
2022-08-30T04:09:34.705Z,2.93
2022-08-30T04:12:01.534Z,3.83
2022-08-30T04:14:28.379Z,2.83
2022-08-30T04:16:55.312Z,3.33
2022-08-30T04:19:22.230Z,3.53
2022-08-30T04:21:49.113Z,3.00
2022-08-30T04:24:16.534Z,3.13
2022-08-30T04:26:43.545Z,3.07
2022-08-30T04:29:12.244Z,3.03
2022-08-30T04:31:39.143Z,3.53
2022-08-30T04:34:06.013Z,4.03
2022-08-30T04:36:32.939Z,3.70
2022-08-30T04:38:59.722Z,3.50
2022-08-30T04:41:26.593Z,3.40
2022-08-30T04:43:53.401Z,3.10
2022-08-30T04:46:20.364Z,3.07
2022-08-30T04:48:47.541Z,3.07
2022-08-30T04:51:16.567Z,3.80
2022-08-30T04:53:44.520Z,3.27
2022-08-30T04:56:16.492Z,3.40
2022-08-30T04:58:47.110Z,3.53
2022-08-30T05:01:23.751Z,2.80
2022-08-30T05:03:52.273Z,3.50
2022-08-30T05:06:20.425Z,3.17
2022-08-30T05:08:47.591Z,3.60
2022-08-30T05:11:15.548Z,3.07
2022-08-30T05:13:43.465Z,3.47
2022-08-30T05:16:10.651Z,3.87
2022-08-30T05:18:37.827Z,3.43
2022-08-30T05:21:23.644Z,3.10
2022-08-30T05:23:52.847Z,2.73
2022-08-30T05:26:23.381Z,3.03
2022-08-30T05:28:52.483Z,3.23
2022-08-30T05:31:23.750Z,3.13
2022-08-30T05:33:51.837Z,3.50
2022-08-30T05:36:21.261Z,3.87
2022-08-30T05:38:48.195Z,3.50
2022-08-30T05:41:15.225Z,2.90
2022-08-30T05:43:42.505Z,3.33
2022-08-30T05:46:12.147Z,3.03
2022-08-30T05:48:40.550Z,3.37
2022-08-30T05:51:11.436Z,3.03
2022-08-30T05:53:39.784Z,3.07
2022-08-30T05:56:09.068Z,2.60
2022-08-30T05:58:37.136Z,2.80
2022-08-30T06:01:04.823Z,2.83
2022-08-30T06:03:34.472Z,2.87
2022-08-30T06:06:02.407Z,2.40
2022-08-30T06:08:29.248Z,3.53
2022-08-30T06:10:56.089Z,2.67
2022-08-30T06:13:23.257Z,2.90
2022-08-30T06:15:51.140Z,2.70
2022-08-30T06:18:18.354Z,2.80
2022-08-30T06:20:51.308Z,3.33
2022-08-30T06:23:18.277Z,2.77
2022-08-30T06:25:45.171Z,3.33
2022-08-30T06:28:12.733Z,2.50
2022-08-30T06:30:41.867Z,3.03
2022-08-30T06:33:09.833Z,3.00
2022-08-30T06:35:46.773Z,3.00
2022-08-30T06:38:23.797Z,2.83
2022-08-30T06:40:51.030Z,3.10
2022-08-30T06:43:17.872Z,3.00
2022-08-30T06:45:44.665Z,2.93
2022-08-30T06:48:11.560Z,2.80
2022-08-30T06:50:38.422Z,3.03
2022-08-30T06:53:06.105Z,3.30
2022-08-30T06:55:35.988Z,3.20
2022-08-30T06:58:03.748Z,3.30
2022-08-30T07:00:31.149Z,3.60
2022-08-30T07:02:59.490Z,3.20
2022-08-30T07:05:26.389Z,3.30
2022-08-30T07:07:54.241Z,3.80
2022-08-30T07:10:21.645Z,2.83
2022-08-30T07:12:48.875Z,3.57
2022-08-30T07:15:15.910Z,3.07
2022-08-30T07:18:01.380Z,2.67
2022-08-30T07:20:28.209Z,3.53
2022-08-30T07:23:07.028Z,2.90
2022-08-30T07:25:33.853Z,3.10
2022-08-30T07:28:01.057Z,3.30
2022-08-30T07:30:27.856Z,3.07
2022-08-30T07:32:54.717Z,3.03
2022-08-30T07:35:21.516Z,3.07
2022-08-30T07:37:48.292Z,3.13
2022-08-30T07:40:15.163Z,2.60
2022-08-30T07:42:42.065Z,3.20
2022-08-30T07:45:10.353Z,3.13
2022-08-30T07:47:37.471Z,2.80
2022-08-30T07:50:11.609Z,2.57
2022-08-30T07:52:38.644Z,2.87
2022-08-30T07:55:06.529Z,3.03
2022-08-30T07:57:34.500Z,2.80
2022-08-30T08:00:02.642Z,2.70
2022-08-30T08:02:29.463Z,3.20
2022-08-30T08:04:56.309Z,2.73
2022-08-30T08:07:23.215Z,2.70
2022-08-30T08:09:50.025Z,3.30
2022-08-30T08:12:17.002Z,2.47
2022-08-30T08:14:43.780Z,2.43
2022-08-30T08:17:10.607Z,2.57
2022-08-30T08:19:37.371Z,2.47
2022-08-30T08:22:20.036Z,2.90
2022-08-30T08:24:47.633Z,2.77
2022-08-30T08:27:14.473Z,2.90
2022-08-30T08:29:41.350Z,2.70
2022-08-30T08:32:08.203Z,2.50
2022-08-30T08:34:36.594Z,2.80
2022-08-30T08:37:03.630Z,3.63
2022-08-30T08:39:30.694Z,2.80
2022-08-30T08:41:57.452Z,3.10
2022-08-30T08:44:42.103Z,2.80
2022-08-30T08:47:19.583Z,3.00
2022-08-30T08:49:49.789Z,2.60
2022-08-30T08:53:25.090Z,2.40
2022-08-30T08:56:12.207Z,2.77
2022-08-30T08:58:45.605Z,2.80
2022-08-30T09:01:15.320Z,2.50
2022-08-30T09:03:42.643Z,2.70
2022-08-30T09:06:20.465Z,2.40
2022-08-30T09:08:47.547Z,2.40
2022-08-30T09:11:26.291Z,2.50
2022-08-30T09:13:54.550Z,2.40
2022-08-30T09:17:02.944Z,2.17
2022-08-30T09:19:37.954Z,2.17
2022-08-30T09:22:12.324Z,2.37
2022-08-30T09:24:45.805Z,2.40
2022-08-30T09:27:24.009Z,2.40
2022-08-30T09:29:59.112Z,2.00
2022-08-30T09:32:29.620Z,2.43
2022-08-30T09:34:57.269Z,2.20
2022-08-30T09:37:37.479Z,2.50
2022-08-30T09:40:11.951Z,2.50
2022-08-30T09:42:39.320Z,2.10
2022-08-30T09:45:18.858Z,2.33
2022-08-30T09:47:46.005Z,2.33
2022-08-30T09:50:19.857Z,2.50
2022-08-30T09:53:31.857Z,2.50
2022-08-30T09:56:23.577Z,2.07
2022-08-30T09:59:15.137Z,2.10
2022-08-30T10:02:09.932Z,2.07
2022-08-30T10:04:44.533Z,2.60
2022-08-30T10:07:21.332Z,2.50
2022-08-30T10:10:36.449Z,2.30
2022-08-30T10:13:36.439Z,2.33
2022-08-30T10:16:03.419Z,2.67
2022-08-30T10:18:30.175Z,2.33
2022-08-30T10:21:19.213Z,2.53
2022-08-30T10:23:53.952Z,1.93
2022-08-30T10:26:31.452Z,2.67
2022-08-30T10:29:12.542Z,2.37
2022-08-30T10:31:50.143Z,2.50
2022-08-30T10:34:42.784Z,2.57
2022-08-30T10:37:13.648Z,2.60
2022-08-30T10:39:51.184Z,2.60
2022-08-30T10:42:49.480Z,2.40
2022-08-30T10:45:17.448Z,2.50
2022-08-30T10:48:22.057Z,2.47
2022-08-30T10:50:53.714Z,2.80
2022-08-30T10:53:31.057Z,2.33
2022-08-30T10:56:10.697Z,2.10
2022-08-30T10:58:41.924Z,2.47
2022-08-30T11:01:38.359Z,2.03
2022-08-30T11:04:34.921Z,2.00
2022-08-30T11:07:14.777Z,2.20
2022-08-30T11:10:06.006Z,2.23
2022-08-30T11:13:00.825Z,2.10
2022-08-30T11:15:31.661Z,2.10
2022-08-30T11:18:01.346Z,1.90
2022-08-30T11:20:44.517Z,2.43
2022-08-30T11:23:29.033Z,2.30
2022-08-30T11:26:08.681Z,2.07
2022-08-30T11:29:02.028Z,2.17
2022-08-30T11:31:38.237Z,2.50
2022-08-30T11:34:16.619Z,1.63
2022-08-30T11:36:46.077Z,2.70
2022-08-30T11:39:53.836Z,2.13
2022-08-30T11:42:42.875Z,2.20
2022-08-30T11:45:26.876Z,2.50
2022-08-30T11:47:56.573Z,1.93
2022-08-30T11:50:33.453Z,2.70
2022-08-30T11:53:06.597Z,2.23
2022-08-30T11:55:46.457Z,2.13
2022-08-30T11:58:30.197Z,2.10
2022-08-30T12:01:50.897Z,2.43
2022-08-30T12:04:40.142Z,2.47
2022-08-30T12:07:09.484Z,2.83
2022-08-30T12:09:37.091Z,2.13
2022-08-30T12:12:05.606Z,2.93
2022-08-30T12:14:41.348Z,2.43
2022-08-30T12:17:50.795Z,2.10
2022-08-30T12:20:29.124Z,2.30
2022-08-30T12:22:56.938Z,2.53
2022-08-30T12:25:29.441Z,2.40
2022-08-30T12:28:24.247Z,2.33
2022-08-30T12:30:52.164Z,2.83
2022-08-30T12:33:40.393Z,2.00
2022-08-30T12:36:33.306Z,2.50
2022-08-30T12:39:37.169Z,2.50
2022-08-30T12:42:24.467Z,2.20
2022-08-30T12:44:57.871Z,2.13
2022-08-30T12:47:48.837Z,2.33
2022-08-30T12:50:20.816Z,2.33
2022-08-30T12:52:57.234Z,2.57
2022-08-30T12:55:30.849Z,2.40
2022-08-30T12:58:10.130Z,2.47
2022-08-30T13:00:42.653Z,2.40
2022-08-30T13:03:30.219Z,2.70
2022-08-30T13:05:57.778Z,2.30
2022-08-30T13:08:36.993Z,2.33
2022-08-30T13:11:09.094Z,2.50
2022-08-30T13:13:38.913Z,2.07
2022-08-30T13:16:18.283Z,2.63
2022-08-30T13:18:47.428Z,2.37
2022-08-30T13:21:34.769Z,2.47
2022-08-30T13:24:04.580Z,2.33
2022-08-30T13:26:35.289Z,2.00
2022-08-30T13:29:05.008Z,2.50
2022-08-30T13:31:37.330Z,3.03
2022-08-30T13:34:05.275Z,2.40
2022-08-30T13:36:35.254Z,2.00
2022-08-30T13:39:03.185Z,1.60
2022-08-30T13:41:34.469Z,2.35
2022-08-30T13:44:20.222Z,1.98
2022-08-30T13:46:55.321Z,2.77
2022-08-30T13:52:22.642Z,2.40
2022-08-30T13:54:55.153Z,2.43
2022-08-30T14:00:17.811Z,2.87
2022-08-30T14:02:51.613Z,2.20
2022-08-30T14:11:11.346Z,2.97
2022-08-30T14:13:38.954Z,2.63
2022-08-30T14:16:27.281Z,2.03
2022-08-30T14:18:55.686Z,2.47
2022-08-30T14:21:24.551Z,2.73
2022-08-30T14:23:53.065Z,2.50
2022-08-30T14:26:32.851Z,2.25
2022-08-30T14:29:02.126Z,2.40
2022-08-30T14:31:30.203Z,2.30
2022-08-30T14:34:00.225Z,1.90
2022-08-30T14:36:27.070Z,2.40
2022-08-30T14:38:53.981Z,2.13
2022-08-30T14:41:21.005Z,2.03
2022-08-30T14:43:47.840Z,2.55
2022-08-30T14:46:14.846Z,1.95
2022-08-30T14:48:43.057Z,2.60
2022-08-30T14:51:18.566Z,2.28
2022-08-30T14:53:46.718Z,2.15
2022-08-30T14:56:19.887Z,2.45
2022-08-30T14:58:49.893Z,2.60
2022-08-30T15:01:17.470Z,2.20
2022-08-30T15:03:44.593Z,2.20
2022-08-30T15:06:11.790Z,3.07
2022-08-30T15:08:39.376Z,2.40
2022-08-30T15:11:14.088Z,2.70
2022-08-30T15:13:42.496Z,2.17
2022-08-30T15:16:18.913Z,1.80
2022-08-30T15:18:46.846Z,2.40
2022-08-30T15:21:14.749Z,2.73
2022-08-30T15:23:41.947Z,2.37
2022-08-30T15:26:09.900Z,3.00
2022-08-30T15:28:37.183Z,3.13
2022-08-30T15:31:08.538Z,2.70
2022-08-30T15:33:37.364Z,2.60
2022-08-30T15:36:05.442Z,2.60
2022-08-30T15:38:32.685Z,2.87
2022-08-30T15:41:04.094Z,2.70
2022-08-30T15:43:31.498Z,2.87
2022-08-30T15:46:17.683Z,2.27
2022-08-30T15:48:46.152Z,2.83
2022-08-30T15:51:13.364Z,2.80
2022-08-30T15:53:40.616Z,2.50
2022-08-30T15:56:07.628Z,2.90
2022-08-30T15:58:35.218Z,2.40
2022-08-30T16:01:02.396Z,2.63
2022-08-30T16:03:29.738Z,2.20
2022-08-30T16:05:57.382Z,2.60
2022-08-30T16:08:24.467Z,2.67
2022-08-30T16:10:52.733Z,2.43
2022-08-30T16:13:20.052Z,2.90
2022-08-30T16:15:47.009Z,2.57
2022-08-30T16:18:14.956Z,2.30
2022-08-30T16:20:42.862Z,2.73
2022-08-30T16:23:11.197Z,3.00
2022-08-30T16:25:40.090Z,2.10
2022-08-30T16:28:09.495Z,2.50
2022-08-30T16:30:36.945Z,3.13
2022-08-30T16:33:03.934Z,2.63
2022-08-30T16:35:33.325Z,2.53
2022-08-30T16:38:00.219Z,2.40
2022-08-30T16:40:27.437Z,2.17
2022-08-30T16:42:54.309Z,2.30
2022-08-30T16:45:21.151Z,2.60
2022-08-30T16:47:50.995Z,2.40
2022-08-30T16:50:21.442Z,2.20
2022-08-30T16:52:48.264Z,3.10
2022-08-30T16:55:15.257Z,2.67
2022-08-30T16:57:42.195Z,3.03
2022-08-30T17:00:13.869Z,2.60
2022-08-30T17:02:42.844Z,2.20
2022-08-30T17:05:21.898Z,2.80
2022-08-30T17:07:50.337Z,2.83
2022-08-30T17:10:23.063Z,2.80
2022-08-30T17:12:53.226Z,2.80
2022-08-30T17:15:20.139Z,2.50
2022-08-30T17:17:47.841Z,2.60
2022-08-30T17:20:15.570Z,2.20
2022-08-30T17:22:42.483Z,3.27
2022-08-30T17:25:13.516Z,3.00
2022-08-30T17:27:40.384Z,2.93
2022-08-30T17:30:09.609Z,2.70
2022-08-30T17:32:36.455Z,2.80
2022-08-30T17:35:04.245Z,2.70
2022-08-30T17:37:33.346Z,2.47
2022-08-30T17:40:00.924Z,3.03
2022-08-30T17:42:29.856Z,2.80
2022-08-30T17:44:58.055Z,2.70
2022-08-30T17:47:28.284Z,3.17
2022-08-30T17:49:55.454Z,2.63
2022-08-30T17:52:22.261Z,2.67
2022-08-30T17:54:50.541Z,3.10
2022-08-30T17:57:18.104Z,2.70
2022-08-30T17:59:45.626Z,2.93
2022-08-30T18:02:13.945Z,2.97
2022-08-30T18:04:42.140Z,3.53
2022-08-30T18:09:57.267Z,3.27
2022-08-30T18:12:24.157Z,3.10
2022-08-30T18:14:54.174Z,2.63
2022-08-30T18:17:21.121Z,2.93
2022-08-30T18:19:47.967Z,3.67
2022-08-30T18:22:16.241Z,2.70
2022-08-30T18:24:43.485Z,3.23
2022-08-30T18:27:10.382Z,2.80
2022-08-30T18:29:38.525Z,2.77
2022-08-30T18:32:05.888Z,3.07
2022-08-30T18:34:36.087Z,3.10
2022-08-30T18:37:02.990Z,2.70
2022-08-30T18:42:16.726Z,2.83
2022-08-30T18:44:43.948Z,3.20
2022-08-30T18:47:11.102Z,3.07
2022-08-30T18:49:37.928Z,2.93
2022-08-30T18:52:07.595Z,3.10
2022-08-30T18:54:49.732Z,3.10
2022-08-30T18:57:19.429Z,3.57
2022-08-30T18:59:46.311Z,3.10
2022-08-30T19:02:15.594Z,3.03
2022-08-30T19:04:44.118Z,2.67
2022-08-30T19:07:14.839Z,2.80
2022-08-30T19:09:43.149Z,3.00
2022-08-30T19:12:11.600Z,3.03
2022-08-30T19:14:39.735Z,3.00
2022-08-30T19:17:07.536Z,2.87
2022-08-30T19:19:35.367Z,2.60
2022-08-30T19:22:12.963Z,3.47
2022-08-30T19:24:39.786Z,2.83
2022-08-30T19:27:07.037Z,3.07
2022-08-30T19:29:34.014Z,3.17
2022-08-30T19:32:00.882Z,2.57
2022-08-30T19:34:28.021Z,2.63
2022-08-30T19:36:54.811Z,2.63
2022-08-30T19:39:21.923Z,2.63
2022-08-30T19:41:49.021Z,3.13
2022-08-30T19:44:16.047Z,2.80
2022-08-30T19:46:42.913Z,2.97
2022-08-30T19:49:11.252Z,2.53
2022-08-30T19:51:38.941Z,2.77
2022-08-30T19:54:13.709Z,2.67
2022-08-30T19:56:40.556Z,2.70
2022-08-30T19:59:07.397Z,3.23
2022-08-30T20:01:34.477Z,2.77
2022-08-30T20:04:02.406Z,3.13
2022-08-30T20:06:30.444Z,2.70
2022-08-30T20:08:58.123Z,3.13
2022-08-30T20:11:27.321Z,2.70
2022-08-30T20:13:54.404Z,3.10
2022-08-30T20:16:22.276Z,3.20
2022-08-30T20:19:02.823Z,2.77
2022-08-30T20:21:30.881Z,2.70
2022-08-30T20:23:57.737Z,2.87
2022-08-30T20:24:26.905Z,3.30
2022-08-30T20:24:27.446Z,2.50
2022-08-30T20:26:33.968Z,2.20
2022-08-30T20:29:02.711Z,2.97
2022-08-30T20:31:29.971Z,2.80
2022-08-30T20:33:57.127Z,2.77
2022-08-30T20:36:23.903Z,3.03
2022-08-30T20:38:51.152Z,3.10
2022-08-30T20:41:19.094Z,3.87
2022-08-30T20:43:46.858Z,3.33
2022-08-30T20:46:17.311Z,2.63
2022-08-30T20:48:45.480Z,3.40
2022-08-30T20:51:15.572Z,3.17
2022-08-30T20:53:43.304Z,2.97
2022-08-30T20:56:15.487Z,3.00
2022-08-30T20:58:42.870Z,2.53
2022-08-30T21:01:11.585Z,2.83
2022-08-30T21:03:40.908Z,2.60
2022-08-30T21:06:07.969Z,3.13
2022-08-30T21:08:35.230Z,3.83
2022-08-30T21:11:02.090Z,4.30
2022-08-30T21:13:29.302Z,3.43
2022-08-30T21:16:00.518Z,3.93
2022-08-30T21:18:33.298Z,3.77
2022-08-30T21:21:21.337Z,3.80
2022-08-30T21:23:53.322Z,4.00
2022-08-30T21:26:20.965Z,3.30
2022-08-30T21:28:50.031Z,3.40
2022-08-30T21:31:20.283Z,3.13
2022-08-30T21:33:49.398Z,3.13
2022-08-30T21:36:35.554Z,3.50
2022-08-30T21:39:03.297Z,3.30
2022-08-30T21:41:31.508Z,3.23
2022-08-30T21:44:00.664Z,3.23
2022-08-30T21:46:29.022Z,3.10
2022-08-30T21:48:58.684Z,3.50
2022-08-30T21:51:25.508Z,3.30
2022-08-30T21:53:52.305Z,3.07
2022-08-30T21:56:22.017Z,2.77
2022-08-30T21:58:49.753Z,3.40
2022-08-30T22:01:23.507Z,3.20
2022-08-30T22:03:56.732Z,4.33
2022-08-30T22:06:25.207Z,3.67
2022-08-30T22:08:58.440Z,3.83
2022-08-30T22:11:26.528Z,3.20
2022-08-30T22:13:54.671Z,3.07
2022-08-30T22:16:22.858Z,3.00
2022-08-30T22:18:50.860Z,3.80
2022-08-30T22:21:23.104Z,4.07
2022-08-30T22:23:50.809Z,3.40
2022-08-30T22:26:20.210Z,3.80
2022-08-30T22:28:47.719Z,3.57
2022-08-30T22:31:15.971Z,3.50
2022-08-30T22:33:43.373Z,3.57
2022-08-30T22:36:13.233Z,3.50
2022-08-30T22:38:40.728Z,3.23
2022-08-30T22:41:14.372Z,3.50
2022-08-30T22:43:41.494Z,4.00
2022-08-30T22:46:08.647Z,3.63
2022-08-30T22:48:36.901Z,3.17
2022-08-30T22:51:03.888Z,3.90
2022-08-30T22:53:32.313Z,4.20
2022-08-30T22:55:59.776Z,3.60
2022-08-30T22:58:26.848Z,3.87
2022-08-30T23:00:55.062Z,3.47
2022-08-30T23:03:22.142Z,3.70
2022-08-30T23:05:48.963Z,3.83
2022-08-30T23:08:15.765Z,4.23
2022-08-30T23:10:44.338Z,4.17
2022-08-30T23:13:11.242Z,3.73
2022-08-30T23:15:38.071Z,4.57
2022-08-30T23:18:04.964Z,4.40
2022-08-30T23:20:31.829Z,5.43
2022-08-30T23:22:58.576Z,4.57
2022-08-30T23:25:51.915Z,4.70
2022-08-30T23:28:39.372Z,4.87
2022-08-30T23:31:31.066Z,4.27
2022-08-30T23:34:16.604Z,4.60
2022-08-30T23:37:02.510Z,5.10
2022-08-30T23:39:48.028Z,4.13
2022-08-30T23:42:33.545Z,4.63
2022-08-30T23:45:19.089Z,4.43
2022-08-30T23:48:04.335Z,4.57
2022-08-30T23:50:49.627Z,4.73
2022-08-30T23:53:34.837Z,4.37
2022-08-30T23:56:20.736Z,4.97
2022-08-30T23:59:06.539Z,5.03
